Elk Grove Village, IL

9:18 AM CST en Febrero 27, 2015 (GMT -0600)
Chicago-Midway | Change Station
CLOSE
Current Station
Aeropuerto
Location: Chicago Midway,
Altura: 623 ft
Estaciones meteorológicas cercanas

Alt 623 ft 41.78 °N, 87.76 °W | Updated 25 minutes ago

Despejado
Despejado
9 ° F
Sensación térmica 1 ° F
N
5
Viento Variable Viento desde ONO

Hoy
Alta -- | Baja -- ° F
--% Posibilidad de precipitaciones
Ayer
Alta -- | Baja -- ° F
Precip. -- pul
6:30 AM 5:39 PM
Gibosa creciente, 69% visible
Presión 30.66 pul
Visibilidad 10.0 Millas
Nubes Baja 5000 ft
Vientos helados 1 ° F
Punto de rocío -3 ° F
Humedad 59%
Precipitaciones 0.00 pul
Espesor de la nieve No disponible.
UV 2 de una escala de 12
Polen .40 de una escala de 12
Calidad del aire No disponible.
Flu Activity No disponible.
METAR KMDW 271453Z 29004KT 10SM FEW050 M13/M19 A3059 RMK AO2 SLP382 T11281194 53023

More Conditions Fewer Conditions

Presión 30.66 pul
Visibilidad 10.0 Millas
Nubes Baja 5000 ft
Vientos helados 1 ° F
Punto de rocío -3 ° F
Humedad 59%
Precipitaciones 0.00 pul
Espesor de la nieve No disponible.
UV 2 de una escala de 12
Polen .40 de una escala de 12
Calidad del aire No disponible.
Flu Activity No disponible.
METAR KMDW 271453Z 29004KT 10SM FEW050 M13/M19 A3059 RMK AO2 SLP382 T11281194 53023

More Conditions Fewer Conditions

10-Day Weather Forecast

Almanac

Astronomía

Feb. 27, 2015 Salida Puesta
Hora real
Crepúsculo civil
Crepúsculo náutico
Crepúsculo astronómico
Luna
Horas de luz
Horas de luz
Tomorrow will be .
, % of the Moon is Illuminated

Extremos de hoy

Máximos del estado Bajos del estado

Community

WunderPhotos

Upload Photos

1,800,692 ¡fotos cargadas!

WunderBlogs® & News

Nearby

Calidad del aire

  Calidad del aire Índice AQ Contaminante
Not available.

Grosos de nieve

Estación Profundido Altura

Actividad de terremotos

Ciudad Distance Mag. Tiempo y dato
Magnitud mínima muestra es 2,5.

Temperaturas de aguas costeras

Lugar Temperatura

Estaciones meteorológicas cercanas